sensor_id;sensor_type;location;lat;lon;timestamp;P1;durP1;ratioP1;P2;durP2;ratioP2
63975;SDS011;50167;47.958;21.780;2023-07-24T00:00:06;7.17;;;5.10;;
63975;SDS011;50167;47.958;21.780;2023-07-24T00:02:34;6.93;;;4.63;;
63975;SDS011;50167;47.958;21.780;2023-07-24T00:05:00;6.85;;;4.80;;
63975;SDS011;50167;47.958;21.780;2023-07-24T00:07:26;6.80;;;4.73;;
63975;SDS011;50167;47.958;21.780;2023-07-24T00:09:52;8.53;;;4.83;;
63975;SDS011;50167;47.958;21.780;2023-07-24T00:12:20;8.00;;;4.13;;
63975;SDS011;50167;47.958;21.780;2023-07-24T00:14:47;11.50;;;4.90;;
63975;SDS011;50167;47.958;21.780;2023-07-24T00:17:14;8.30;;;5.37;;
63975;SDS011;50167;47.958;21.780;2023-07-24T00:19:40;7.47;;;5.05;;
63975;SDS011;50167;47.958;21.780;2023-07-24T00:22:06;6.78;;;4.80;;
63975;SDS011;50167;47.958;21.780;2023-07-24T00:24:32;6.93;;;4.57;;
63975;SDS011;50167;47.958;21.780;2023-07-24T00:26:58;5.75;;;4.62;;
63975;SDS011;50167;47.958;21.780;2023-07-24T00:29:24;12.80;;;5.22;;
63975;SDS011;50167;47.958;21.780;2023-07-24T00:31:51;6.58;;;5.45;;
63975;SDS011;50167;47.958;21.780;2023-07-24T00:34:17;6.22;;;3.92;;
63975;SDS011;50167;47.958;21.780;2023-07-24T00:36:43;7.37;;;5.60;;
63975;SDS011;50167;47.958;21.780;2023-07-24T00:39:09;9.70;;;4.10;;
63975;SDS011;50167;47.958;21.780;2023-07-24T00:41:35;6.62;;;5.08;;
63975;SDS011;50167;47.958;21.780;2023-07-24T00:44:03;7.03;;;5.05;;
63975;SDS011;50167;47.958;21.780;2023-07-24T00:46:29;7.75;;;4.90;;
63975;SDS011;50167;47.958;21.780;2023-07-24T00:48:59;4.87;;;4.00;;
63975;SDS011;50167;47.958;21.780;2023-07-24T00:51:27;9.45;;;5.33;;
63975;SDS011;50167;47.958;21.780;2023-07-24T00:54:00;7.75;;;5.12;;
63975;SDS011;50167;47.958;21.780;2023-07-24T00:56:29;6.62;;;4.20;;
63975;SDS011;50167;47.958;21.780;2023-07-24T00:58:57;5.75;;;4.42;;
63975;SDS011;50167;47.958;21.780;2023-07-24T01:01:25;9.23;;;4.03;;
63975;SDS011;50167;47.958;21.780;2023-07-24T01:03:51;6.58;;;4.90;;
63975;SDS011;50167;47.958;21.780;2023-07-24T01:06:18;8.08;;;4.55;;
63975;SDS011;50167;47.958;21.780;2023-07-24T01:08:45;7.10;;;5.05;;
63975;SDS011;50167;47.958;21.780;2023-07-24T01:11:21;8.08;;;5.45;;
63975;SDS011;50167;47.958;21.780;2023-07-24T01:14:12;9.73;;;5.47;;
63975;SDS011;50167;47.958;21.780;2023-07-24T01:16:45;6.47;;;5.40;;
63975;SDS011;50167;47.958;21.780;2023-07-24T01:19:17;7.62;;;5.67;;
63975;SDS011;50167;47.958;21.780;2023-07-24T01:27:44;12.18;;;5.53;;
63975;SDS011;50167;47.958;21.780;2023-07-24T01:30:13;6.97;;;5.22;;
63975;SDS011;50167;47.958;21.780;2023-07-24T01:32:45;6.42;;;5.00;;
63975;SDS011;50167;47.958;21.780;2023-07-24T01:35:11;8.30;;;5.22;;
63975;SDS011;50167;47.958;21.780;2023-07-24T01:37:38;6.67;;;4.83;;
63975;SDS011;50167;47.958;21.780;2023-07-24T01:40:08;8.38;;;5.55;;
63975;SDS011;50167;47.958;21.780;2023-07-24T01:42:36;8.68;;;5.37;;
63975;SDS011;50167;47.958;21.780;2023-07-24T01:45:04;7.20;;;4.60;;
63975;SDS011;50167;47.958;21.780;2023-07-24T01:47:31;9.90;;;5.35;;
63975;SDS011;50167;47.958;21.780;2023-07-24T01:49:58;5.80;;;4.83;;
63975;SDS011;50167;47.958;21.780;2023-07-24T01:52:24;8.40;;;4.85;;
63975;SDS011;50167;47.958;21.780;2023-07-24T01:54:52;7.17;;;5.53;;
63975;SDS011;50167;47.958;21.780;2023-07-24T01:57:18;6.58;;;4.90;;
63975;SDS011;50167;47.958;21.780;2023-07-24T01:59:44;8.83;;;6.00;;
63975;SDS011;50167;47.958;21.780;2023-07-24T02:02:10;7.65;;;5.20;;
63975;SDS011;50167;47.958;21.780;2023-07-24T02:04:37;7.42;;;4.92;;
63975;SDS011;50167;47.958;21.780;2023-07-24T02:07:03;6.33;;;5.10;;
63975;SDS011;50167;47.958;21.780;2023-07-24T02:09:30;6.50;;;4.53;;
63975;SDS011;50167;47.958;21.780;2023-07-24T02:11:56;8.88;;;5.45;;
63975;SDS011;50167;47.958;21.780;2023-07-24T02:14:22;18.60;;;6.57;;
63975;SDS011;50167;47.958;21.780;2023-07-24T02:16:49;8.08;;;5.47;;
63975;SDS011;50167;47.958;21.780;2023-07-24T02:19:15;7.28;;;4.78;;
63975;SDS011;50167;47.958;21.780;2023-07-24T02:21:42;6.05;;;4.75;;
63975;SDS011;50167;47.958;21.780;2023-07-24T02:24:08;6.95;;;4.67;;
63975;SDS011;50167;47.958;21.780;2023-07-24T02:26:34;6.90;;;5.30;;
63975;SDS011;50167;47.958;21.780;2023-07-24T02:29:00;9.58;;;5.55;;
63975;SDS011;50167;47.958;21.780;2023-07-24T02:31:26;8.38;;;5.75;;
63975;SDS011;50167;47.958;21.780;2023-07-24T02:33:52;8.20;;;6.17;;
63975;SDS011;50167;47.958;21.780;2023-07-24T02:36:19;8.60;;;5.27;;
63975;SDS011;50167;47.958;21.780;2023-07-24T02:38:45;11.90;;;4.77;;
63975;SDS011;50167;47.958;21.780;2023-07-24T02:41:11;7.35;;;4.22;;
63975;SDS011;50167;47.958;21.780;2023-07-24T02:43:38;8.03;;;5.30;;
63975;SDS011;50167;47.958;21.780;2023-07-24T02:46:04;7.58;;;4.78;;
63975;SDS011;50167;47.958;21.780;2023-07-24T02:48:30;7.13;;;4.23;;
63975;SDS011;50167;47.958;21.780;2023-07-24T02:50:56;6.30;;;5.05;;
63975;SDS011;50167;47.958;21.780;2023-07-24T02:53:22;6.55;;;5.03;;
63975;SDS011;50167;47.958;21.780;2023-07-24T02:55:49;6.05;;;4.53;;
63975;SDS011;50167;47.958;21.780;2023-07-24T02:58:15;9.90;;;5.90;;
63975;SDS011;50167;47.958;21.780;2023-07-24T03:00:41;10.20;;;5.03;;
63975;SDS011;50167;47.958;21.780;2023-07-24T03:03:08;9.33;;;6.45;;
63975;SDS011;50167;47.958;21.780;2023-07-24T03:05:34;8.40;;;5.70;;
63975;SDS011;50167;47.958;21.780;2023-07-24T03:08:00;6.67;;;5.00;;
63975;SDS011;50167;47.958;21.780;2023-07-24T03:10:26;10.85;;;6.20;;
63975;SDS011;50167;47.958;21.780;2023-07-24T03:12:53;8.83;;;5.30;;
63975;SDS011;50167;47.958;21.780;2023-07-24T03:15:19;6.37;;;4.87;;
63975;SDS011;50167;47.958;21.780;2023-07-24T03:17:45;7.62;;;5.75;;
63975;SDS011;50167;47.958;21.780;2023-07-24T03:20:13;11.80;;;5.47;;
63975;SDS011;50167;47.958;21.780;2023-07-24T03:22:44;6.25;;;5.00;;
63975;SDS011;50167;47.958;21.780;2023-07-24T03:25:11;10.98;;;5.35;;
63975;SDS011;50167;47.958;21.780;2023-07-24T03:27:37;8.40;;;5.65;;
63975;SDS011;50167;47.958;21.780;2023-07-24T03:30:05;6.78;;;4.60;;
63975;SDS011;50167;47.958;21.780;2023-07-24T03:32:33;7.05;;;5.08;;
63975;SDS011;50167;47.958;21.780;2023-07-24T03:34:59;7.55;;;5.45;;
63975;SDS011;50167;47.958;21.780;2023-07-24T03:37:25;10.80;;;5.37;;
63975;SDS011;50167;47.958;21.780;2023-07-24T03:39:51;7.65;;;4.97;;
63975;SDS011;50167;47.958;21.780;2023-07-24T03:42:29;8.78;;;5.80;;
63975;SDS011;50167;47.958;21.780;2023-07-24T03:44:54;9.20;;;5.37;;
63975;SDS011;50167;47.958;21.780;2023-07-24T03:47:21;7.85;;;5.85;;
63975;SDS011;50167;47.958;21.780;2023-07-24T03:49:47;6.17;;;4.50;;
63975;SDS011;50167;47.958;21.780;2023-07-24T03:52:13;6.22;;;4.80;;
63975;SDS011;50167;47.958;21.780;2023-07-24T03:54:39;7.03;;;5.03;;
63975;SDS011;50167;47.958;21.780;2023-07-24T03:57:06;7.33;;;5.35;;
63975;SDS011;50167;47.958;21.780;2023-07-24T03:59:33;8.28;;;5.20;;
63975;SDS011;50167;47.958;21.780;2023-07-24T04:01:59;5.12;;;4.40;;
63975;SDS011;50167;47.958;21.780;2023-07-24T04:04:25;8.03;;;5.85;;
63975;SDS011;50167;47.958;21.780;2023-07-24T04:06:52;7.95;;;5.87;;
63975;SDS011;50167;47.958;21.780;2023-07-24T04:09:18;8.33;;;5.35;;
63975;SDS011;50167;47.958;21.780;2023-07-24T04:11:44;9.38;;;4.80;;
63975;SDS011;50167;47.958;21.780;2023-07-24T04:14:10;7.03;;;5.03;;
63975;SDS011;50167;47.958;21.780;2023-07-24T04:16:37;6.47;;;5.08;;
63975;SDS011;50167;47.958;21.780;2023-07-24T04:19:03;6.87;;;5.25;;
63975;SDS011;50167;47.958;21.780;2023-07-24T04:21:29;9.95;;;5.40;;
63975;SDS011;50167;47.958;21.780;2023-07-24T04:23:55;9.53;;;5.50;;
63975;SDS011;50167;47.958;21.780;2023-07-24T04:26:22;13.90;;;5.62;;
63975;SDS011;50167;47.958;21.780;2023-07-24T04:28:48;6.03;;;5.33;;
63975;SDS011;50167;47.958;21.780;2023-07-24T04:31:14;6.25;;;5.37;;
63975;SDS011;50167;47.958;21.780;2023-07-24T04:33:40;7.00;;;5.00;;
63975;SDS011;50167;47.958;21.780;2023-07-24T04:36:06;9.88;;;5.70;;
63975;SDS011;50167;47.958;21.780;2023-07-24T04:38:33;9.73;;;4.87;;
63975;SDS011;50167;47.958;21.780;2023-07-24T04:41:02;8.08;;;5.00;;
63975;SDS011;50167;47.958;21.780;2023-07-24T04:43:29;9.85;;;4.85;;
63975;SDS011;50167;47.958;21.780;2023-07-24T04:45:55;9.73;;;5.05;;
63975;SDS011;50167;47.958;21.780;2023-07-24T04:48:21;5.58;;;5.00;;
63975;SDS011;50167;47.958;21.780;2023-07-24T04:50:57;9.08;;;5.92;;
63975;SDS011;50167;47.958;21.780;2023-07-24T04:53:21;7.15;;;5.35;;
63975;SDS011;50167;47.958;21.780;2023-07-24T04:55:48;6.00;;;5.08;;
63975;SDS011;50167;47.958;21.780;2023-07-24T04:58:14;10.68;;;5.12;;
63975;SDS011;50167;47.958;21.780;2023-07-24T05:00:41;9.40;;;4.83;;
63975;SDS011;50167;47.958;21.780;2023-07-24T05:03:07;13.95;;;5.22;;
63975;SDS011;50167;47.958;21.780;2023-07-24T05:05:35;7.37;;;5.78;;
63975;SDS011;50167;47.958;21.780;2023-07-24T05:08:03;7.62;;;4.67;;
63975;SDS011;50167;47.958;21.780;2023-07-24T05:10:29;8.10;;;5.70;;
63975;SDS011;50167;47.958;21.780;2023-07-24T05:13:01;9.58;;;5.28;;
63975;SDS011;50167;47.958;21.780;2023-07-24T05:15:28;5.20;;;4.20;;
63975;SDS011;50167;47.958;21.780;2023-07-24T05:17:54;10.90;;;4.95;;
63975;SDS011;50167;47.958;21.780;2023-07-24T05:20:20;9.50;;;4.50;;
63975;SDS011;50167;47.958;21.780;2023-07-24T05:22:47;5.47;;;4.40;;
63975;SDS011;50167;47.958;21.780;2023-07-24T05:25:13;7.47;;;6.15;;
63975;SDS011;50167;47.958;21.780;2023-07-24T05:27:40;5.58;;;4.92;;
63975;SDS011;50167;47.958;21.780;2023-07-24T05:30:06;5.47;;;4.25;;
63975;SDS011;50167;47.958;21.780;2023-07-24T05:32:33;8.03;;;4.80;;
63975;SDS011;50167;47.958;21.780;2023-07-24T05:34:59;8.03;;;4.45;;
63975;SDS011;50167;47.958;21.780;2023-07-24T05:37:25;7.10;;;4.75;;
63975;SDS011;50167;47.958;21.780;2023-07-24T05:39:52;6.67;;;5.05;;
63975;SDS011;50167;47.958;21.780;2023-07-24T05:42:18;5.28;;;4.42;;
63975;SDS011;50167;47.958;21.780;2023-07-24T05:44:44;8.85;;;5.00;;
63975;SDS011;50167;47.958;21.780;2023-07-24T05:47:10;9.03;;;5.00;;
63975;SDS011;50167;47.958;21.780;2023-07-24T05:49:36;9.10;;;5.15;;
63975;SDS011;50167;47.958;21.780;2023-07-24T05:52:02;7.67;;;5.78;;
63975;SDS011;50167;47.958;21.780;2023-07-24T05:54:29;7.50;;;4.65;;
63975;SDS011;50167;47.958;21.780;2023-07-24T05:56:55;6.53;;;4.78;;
63975;SDS011;50167;47.958;21.780;2023-07-24T05:59:22;6.78;;;5.30;;
63975;SDS011;50167;47.958;21.780;2023-07-24T06:01:48;11.00;;;5.28;;
63975;SDS011;50167;47.958;21.780;2023-07-24T06:04:14;9.48;;;4.85;;
63975;SDS011;50167;47.958;21.780;2023-07-24T06:06:40;8.48;;;3.95;;
63975;SDS011;50167;47.958;21.780;2023-07-24T06:09:06;7.42;;;5.05;;
63975;SDS011;50167;47.958;21.780;2023-07-24T06:11:33;9.45;;;4.65;;
63975;SDS011;50167;47.958;21.780;2023-07-24T06:13:59;9.48;;;4.55;;
63975;SDS011;50167;47.958;21.780;2023-07-24T06:16:25;5.30;;;4.47;;
63975;SDS011;50167;47.958;21.780;2023-07-24T06:18:51;7.92;;;4.25;;
63975;SDS011;50167;47.958;21.780;2023-07-24T06:21:17;9.10;;;4.17;;
63975;SDS011;50167;47.958;21.780;2023-07-24T06:23:43;5.22;;;4.05;;
63975;SDS011;50167;47.958;21.780;2023-07-24T06:26:10;8.48;;;4.45;;
63975;SDS011;50167;47.958;21.780;2023-07-24T06:28:36;6.25;;;4.58;;
63975;SDS011;50167;47.958;21.780;2023-07-24T06:31:02;4.92;;;3.83;;
63975;SDS011;50167;47.958;21.780;2023-07-24T06:33:29;8.70;;;4.47;;
63975;SDS011;50167;47.958;21.780;2023-07-24T06:35:55;4.25;;;3.70;;
63975;SDS011;50167;47.958;21.780;2023-07-24T06:38:21;9.28;;;4.53;;
63975;SDS011;50167;47.958;21.780;2023-07-24T06:40:47;8.15;;;5.12;;
63975;SDS011;50167;47.958;21.780;2023-07-24T06:43:14;5.78;;;4.87;;
63975;SDS011;50167;47.958;21.780;2023-07-24T06:45:40;6.72;;;4.67;;
63975;SDS011;50167;47.958;21.780;2023-07-24T06:48:06;6.28;;;4.87;;
63975;SDS011;50167;47.958;21.780;2023-07-24T06:50:32;13.65;;;4.40;;
63975;SDS011;50167;47.958;21.780;2023-07-24T06:52:59;8.50;;;5.47;;
63975;SDS011;50167;47.958;21.780;2023-07-24T06:55:25;4.78;;;4.30;;
63975;SDS011;50167;47.958;21.780;2023-07-24T06:57:51;8.53;;;5.03;;
63975;SDS011;50167;47.958;21.780;2023-07-24T07:00:17;8.50;;;4.45;;
63975;SDS011;50167;47.958;21.780;2023-07-24T07:02:44;8.65;;;5.05;;
63975;SDS011;50167;47.958;21.780;2023-07-24T07:05:10;9.75;;;4.87;;
63975;SDS011;50167;47.958;21.780;2023-07-24T07:07:37;8.33;;;4.40;;
63975;SDS011;50167;47.958;21.780;2023-07-24T07:10:04;6.83;;;4.60;;
63975;SDS011;50167;47.958;21.780;2023-07-24T07:12:32;11.85;;;4.42;;
63975;SDS011;50167;47.958;21.780;2023-07-24T07:14:58;11.60;;;5.28;;
63975;SDS011;50167;47.958;21.780;2023-07-24T07:17:25;6.92;;;4.65;;
63975;SDS011;50167;47.958;21.780;2023-07-24T07:19:51;8.43;;;5.10;;
63975;SDS011;50167;47.958;21.780;2023-07-24T07:22:17;8.00;;;4.58;;
63975;SDS011;50167;47.958;21.780;2023-07-24T07:24:43;11.43;;;5.75;;
63975;SDS011;50167;47.958;21.780;2023-07-24T07:27:11;8.35;;;4.97;;
63975;SDS011;50167;47.958;21.780;2023-07-24T07:29:38;6.42;;;4.40;;
63975;SDS011;50167;47.958;21.780;2023-07-24T07:32:04;8.88;;;4.53;;
63975;SDS011;50167;47.958;21.780;2023-07-24T07:34:31;5.70;;;4.42;;
63975;SDS011;50167;47.958;21.780;2023-07-24T07:36:57;7.58;;;4.67;;
63975;SDS011;50167;47.958;21.780;2023-07-24T07:39:24;7.50;;;4.33;;
63975;SDS011;50167;47.958;21.780;2023-07-24T07:41:50;7.45;;;4.90;;
63975;SDS011;50167;47.958;21.780;2023-07-24T07:44:16;7.25;;;4.12;;
63975;SDS011;50167;47.958;21.780;2023-07-24T07:46:42;9.28;;;4.85;;
63975;SDS011;50167;47.958;21.780;2023-07-24T07:49:09;10.13;;;5.12;;
63975;SDS011;50167;47.958;21.780;2023-07-24T07:51:35;11.05;;;5.08;;
63975;SDS011;50167;47.958;21.780;2023-07-24T07:54:01;8.60;;;4.85;;
63975;SDS011;50167;47.958;21.780;2023-07-24T07:56:28;12.30;;;5.08;;
63975;SDS011;50167;47.958;21.780;2023-07-24T07:58:54;5.85;;;4.90;;
63975;SDS011;50167;47.958;21.780;2023-07-24T08:01:20;6.72;;;5.08;;
63975;SDS011;50167;47.958;21.780;2023-07-24T08:03:46;8.83;;;4.95;;
63975;SDS011;50167;47.958;21.780;2023-07-24T08:06:12;11.50;;;5.08;;
63975;SDS011;50167;47.958;21.780;2023-07-24T08:08:38;9.28;;;4.95;;
63975;SDS011;50167;47.958;21.780;2023-07-24T08:11:05;9.50;;;5.45;;
63975;SDS011;50167;47.958;21.780;2023-07-24T08:13:32;5.28;;;4.58;;
63975;SDS011;50167;47.958;21.780;2023-07-24T08:15:59;9.18;;;5.28;;
63975;SDS011;50167;47.958;21.780;2023-07-24T08:18:27;7.42;;;5.45;;
63975;SDS011;50167;47.958;21.780;2023-07-24T08:20:54;7.85;;;5.20;;
63975;SDS011;50167;47.958;21.780;2023-07-24T08:23:20;9.10;;;5.05;;
63975;SDS011;50167;47.958;21.780;2023-07-24T08:25:55;7.33;;;4.67;;
63975;SDS011;50167;47.958;21.780;2023-07-24T08:28:21;11.00;;;4.90;;
63975;SDS011;50167;47.958;21.780;2023-07-24T08:30:57;9.93;;;5.05;;
63975;SDS011;50167;47.958;21.780;2023-07-24T08:33:26;8.90;;;5.42;;
63975;SDS011;50167;47.958;21.780;2023-07-24T08:36:05;11.22;;;5.85;;
63975;SDS011;50167;47.958;21.780;2023-07-24T08:38:36;8.78;;;4.87;;
63975;SDS011;50167;47.958;21.780;2023-07-24T08:41:05;11.88;;;5.30;;
63975;SDS011;50167;47.958;21.780;2023-07-24T08:43:38;9.80;;;4.97;;
63975;SDS011;50167;47.958;21.780;2023-07-24T08:46:06;10.05;;;5.65;;
63975;SDS011;50167;47.958;21.780;2023-07-24T08:48:33;9.65;;;5.15;;
63975;SDS011;50167;47.958;21.780;2023-07-24T08:51:02;6.95;;;5.80;;
63975;SDS011;50167;47.958;21.780;2023-07-24T08:53:36;7.42;;;5.50;;
63975;SDS011;50167;47.958;21.780;2023-07-24T08:56:04;8.00;;;5.40;;
63975;SDS011;50167;47.958;21.780;2023-07-24T08:58:32;9.60;;;5.62;;
63975;SDS011;50167;47.958;21.780;2023-07-24T09:01:00;6.25;;;5.25;;
63975;SDS011;50167;47.958;21.780;2023-07-24T09:03:28;7.60;;;5.70;;
63975;SDS011;50167;47.958;21.780;2023-07-24T09:05:56;8.65;;;5.65;;
63975;SDS011;50167;47.958;21.780;2023-07-24T09:08:36;20.15;;;6.92;;
63975;SDS011;50167;47.958;21.780;2023-07-24T09:11:02;9.33;;;5.65;;
63975;SDS011;50167;47.958;21.780;2023-07-24T09:13:30;10.10;;;5.53;;
63975;SDS011;50167;47.958;21.780;2023-07-24T09:15:57;13.15;;;5.67;;
63975;SDS011;50167;47.958;21.780;2023-07-24T09:18:25;8.93;;;4.83;;
63975;SDS011;50167;47.958;21.780;2023-07-24T09:20:52;8.28;;;6.17;;
63975;SDS011;50167;47.958;21.780;2023-07-24T09:23:25;9.85;;;6.22;;
63975;SDS011;50167;47.958;21.780;2023-07-24T09:25:53;14.65;;;5.97;;
63975;SDS011;50167;47.958;21.780;2023-07-24T09:28:19;7.83;;;5.60;;
63975;SDS011;50167;47.958;21.780;2023-07-24T09:30:55;11.87;;;6.40;;
63975;SDS011;50167;47.958;21.780;2023-07-24T09:33:24;10.05;;;5.78;;
63975;SDS011;50167;47.958;21.780;2023-07-24T09:36:04;8.10;;;5.95;;
63975;SDS011;50167;47.958;21.780;2023-07-24T09:38:33;7.50;;;5.85;;
63975;SDS011;50167;47.958;21.780;2023-07-24T09:41:01;13.28;;;6.37;;
63975;SDS011;50167;47.958;21.780;2023-07-24T09:43:28;12.25;;;6.37;;
63975;SDS011;50167;47.958;21.780;2023-07-24T09:45:55;16.25;;;6.10;;
63975;SDS011;50167;47.958;21.780;2023-07-24T09:48:23;8.83;;;5.97;;
63975;SDS011;50167;47.958;21.780;2023-07-24T09:51:00;12.23;;;5.80;;
63975;SDS011;50167;47.958;21.780;2023-07-24T09:56:06;8.20;;;6.53;;
63975;SDS011;50167;47.958;21.780;2023-07-24T09:58:36;9.75;;;6.17;;
63975;SDS011;50167;47.958;21.780;2023-07-24T10:01:04;10.78;;;6.12;;
63975;SDS011;50167;47.958;21.780;2023-07-24T10:03:39;9.00;;;6.55;;
63975;SDS011;50167;47.958;21.780;2023-07-24T10:06:08;9.20;;;6.25;;
63975;SDS011;50167;47.958;21.780;2023-07-24T10:08:38;13.80;;;6.58;;
63975;SDS011;50167;47.958;21.780;2023-07-24T10:11:05;8.33;;;6.35;;
63975;SDS011;50167;47.958;21.780;2023-07-24T10:13:32;11.20;;;6.17;;
63975;SDS011;50167;47.958;21.780;2023-07-24T10:16:00;12.93;;;7.47;;
63975;SDS011;50167;47.958;21.780;2023-07-24T10:18:28;9.53;;;6.62;;
63975;SDS011;50167;47.958;21.780;2023-07-24T10:21:06;11.83;;;6.12;;
63975;SDS011;50167;47.958;21.780;2023-07-24T10:23:35;18.90;;;6.78;;
63975;SDS011;50167;47.958;21.780;2023-07-24T10:26:04;16.32;;;7.00;;
63975;SDS011;50167;47.958;21.780;2023-07-24T10:28:39;12.07;;;6.58;;
63975;SDS011;50167;47.958;21.780;2023-07-24T10:31:07;12.23;;;6.12;;
63975;SDS011;50167;47.958;21.780;2023-07-24T10:33:36;11.53;;;5.95;;
63975;SDS011;50167;47.958;21.780;2023-07-24T10:36:09;19.02;;;5.92;;
63975;SDS011;50167;47.958;21.780;2023-07-24T10:38:39;8.28;;;6.08;;
63975;SDS011;50167;47.958;21.780;2023-07-24T10:41:08;18.45;;;6.25;;
63975;SDS011;50167;47.958;21.780;2023-07-24T10:43:45;11.67;;;7.10;;
63975;SDS011;50167;47.958;21.780;2023-07-24T10:46:15;16.90;;;6.58;;
63975;SDS011;50167;47.958;21.780;2023-07-24T10:48:44;16.77;;;6.28;;
63975;SDS011;50167;47.958;21.780;2023-07-24T10:51:13;9.73;;;6.87;;
63975;SDS011;50167;47.958;21.780;2023-07-24T10:53:47;9.85;;;6.55;;
63975;SDS011;50167;47.958;21.780;2023-07-24T10:56:14;11.15;;;6.72;;
63975;SDS011;50167;47.958;21.780;2023-07-24T10:58:42;10.38;;;6.95;;
63975;SDS011;50167;47.958;21.780;2023-07-24T11:01:09;10.60;;;6.75;;
63975;SDS011;50167;47.958;21.780;2023-07-24T11:03:43;16.87;;;7.28;;
63975;SDS011;50167;47.958;21.780;2023-07-24T11:06:14;11.30;;;7.70;;
63975;SDS011;50167;47.958;21.780;2023-07-24T11:08:50;8.30;;;6.80;;
63975;SDS011;50167;47.958;21.780;2023-07-24T11:11:30;11.10;;;7.03;;
63975;SDS011;50167;47.958;21.780;2023-07-24T11:14:01;14.53;;;7.28;;
63975;SDS011;50167;47.958;21.780;2023-07-24T11:16:28;14.30;;;7.10;;
63975;SDS011;50167;47.958;21.780;2023-07-24T11:18:58;10.38;;;7.30;;
63975;SDS011;50167;47.958;21.780;2023-07-24T11:21:24;18.10;;;8.18;;
63975;SDS011;50167;47.958;21.780;2023-07-24T11:23:52;13.90;;;7.55;;
63975;SDS011;50167;47.958;21.780;2023-07-24T11:26:20;15.75;;;8.00;;
63975;SDS011;50167;47.958;21.780;2023-07-24T11:28:51;8.73;;;6.90;;
63975;SDS011;50167;47.958;21.780;2023-07-24T11:31:19;18.17;;;8.50;;
63975;SDS011;50167;47.958;21.780;2023-07-24T11:33:45;11.28;;;8.03;;
63975;SDS011;50167;47.958;21.780;2023-07-24T11:36:14;11.60;;;8.18;;
63975;SDS011;50167;47.958;21.780;2023-07-24T11:38:40;14.30;;;7.35;;
63975;SDS011;50167;47.958;21.780;2023-07-24T11:41:08;10.48;;;8.20;;
63975;SDS011;50167;47.958;21.780;2023-07-24T11:43:34;11.57;;;7.22;;
63975;SDS011;50167;47.958;21.780;2023-07-24T11:46:01;12.88;;;8.33;;
63975;SDS011;50167;47.958;21.780;2023-07-24T11:48:27;13.93;;;8.40;;
63975;SDS011;50167;47.958;21.780;2023-07-24T11:50:54;12.70;;;8.25;;
63975;SDS011;50167;47.958;21.780;2023-07-24T11:53:25;13.22;;;8.45;;
63975;SDS011;50167;47.958;21.780;2023-07-24T11:55:57;18.30;;;9.65;;
63975;SDS011;50167;47.958;21.780;2023-07-24T11:58:25;12.85;;;8.55;;
63975;SDS011;50167;47.958;21.780;2023-07-24T12:03:25;18.48;;;8.98;;
63975;SDS011;50167;47.958;21.780;2023-07-24T12:05:52;13.65;;;9.60;;
63975;SDS011;50167;47.958;21.780;2023-07-24T12:08:32;12.00;;;8.38;;
63975;SDS011;50167;47.958;21.780;2023-07-24T12:11:00;15.25;;;8.73;;
63975;SDS011;50167;47.958;21.780;2023-07-24T12:13:28;17.60;;;9.15;;
63975;SDS011;50167;47.958;21.780;2023-07-24T12:15:55;13.32;;;8.05;;
63975;SDS011;50167;47.958;21.780;2023-07-24T12:18:21;10.40;;;8.25;;
63975;SDS011;50167;47.958;21.780;2023-07-24T12:20:47;17.85;;;9.38;;
63975;SDS011;50167;47.958;21.780;2023-07-24T12:23:13;12.33;;;8.25;;
63975;SDS011;50167;47.958;21.780;2023-07-24T12:25:39;11.33;;;8.18;;
63975;SDS011;50167;47.958;21.780;2023-07-24T12:28:05;13.80;;;8.80;;
63975;SDS011;50167;47.958;21.780;2023-07-24T12:30:32;13.50;;;8.58;;
63975;SDS011;50167;47.958;21.780;2023-07-24T12:32:58;14.10;;;8.93;;
63975;SDS011;50167;47.958;21.780;2023-07-24T12:35:24;12.23;;;8.68;;
63975;SDS011;50167;47.958;21.780;2023-07-24T12:37:50;14.53;;;9.30;;
63975;SDS011;50167;47.958;21.780;2023-07-24T12:40:16;15.48;;;8.70;;
63975;SDS011;50167;47.958;21.780;2023-07-24T12:42:42;14.75;;;9.05;;
63975;SDS011;50167;47.958;21.780;2023-07-24T12:45:08;17.42;;;8.55;;
63975;SDS011;50167;47.958;21.780;2023-07-24T12:47:35;14.87;;;8.15;;
63975;SDS011;50167;47.958;21.780;2023-07-24T12:50:01;17.05;;;8.65;;
63975;SDS011;50167;47.958;21.780;2023-07-24T12:52:28;13.08;;;8.18;;
63975;SDS011;50167;47.958;21.780;2023-07-24T12:54:56;13.22;;;8.53;;
63975;SDS011;50167;47.958;21.780;2023-07-24T12:57:22;15.23;;;7.90;;
63975;SDS011;50167;47.958;21.780;2023-07-24T12:59:48;16.77;;;9.70;;
63975;SDS011;50167;47.958;21.780;2023-07-24T13:02:14;12.10;;;8.43;;
63975;SDS011;50167;47.958;21.780;2023-07-24T13:04:41;13.72;;;8.63;;
63975;SDS011;50167;47.958;21.780;2023-07-24T13:07:08;12.85;;;8.18;;
63975;SDS011;50167;47.958;21.780;2023-07-24T13:09:34;18.15;;;9.20;;
63975;SDS011;50167;47.958;21.780;2023-07-24T13:12:00;16.15;;;8.80;;
63975;SDS011;50167;47.958;21.780;2023-07-24T13:14:27;13.50;;;8.73;;
63975;SDS011;50167;47.958;21.780;2023-07-24T13:16:53;14.07;;;8.50;;
63975;SDS011;50167;47.958;21.780;2023-07-24T13:19:20;17.98;;;8.95;;
63975;SDS011;50167;47.958;21.780;2023-07-24T13:21:46;11.03;;;8.50;;
63975;SDS011;50167;47.958;21.780;2023-07-24T13:24:12;13.10;;;8.25;;
63975;SDS011;50167;47.958;21.780;2023-07-24T13:26:39;13.68;;;7.80;;
63975;SDS011;50167;47.958;21.780;2023-07-24T13:29:05;11.05;;;8.25;;
63975;SDS011;50167;47.958;21.780;2023-07-24T13:31:32;11.88;;;7.87;;
63975;SDS011;50167;47.958;21.780;2023-07-24T13:33:58;18.67;;;7.95;;
63975;SDS011;50167;47.958;21.780;2023-07-24T13:36:25;19.12;;;8.95;;
63975;SDS011;50167;47.958;21.780;2023-07-24T13:38:51;12.75;;;9.65;;
63975;SDS011;50167;47.958;21.780;2023-07-24T13:41:17;10.95;;;8.08;;
63975;SDS011;50167;47.958;21.780;2023-07-24T13:43:44;12.47;;;8.73;;
63975;SDS011;50167;47.958;21.780;2023-07-24T13:46:10;12.33;;;8.25;;
63975;SDS011;50167;47.958;21.780;2023-07-24T13:48:36;14.80;;;8.63;;
63975;SDS011;50167;47.958;21.780;2023-07-24T13:51:02;12.73;;;7.75;;
63975;SDS011;50167;47.958;21.780;2023-07-24T13:53:28;14.63;;;8.35;;
63975;SDS011;50167;47.958;21.780;2023-07-24T13:55:55;11.73;;;8.35;;
63975;SDS011;50167;47.958;21.780;2023-07-24T13:58:21;11.95;;;7.97;;
63975;SDS011;50167;47.958;21.780;2023-07-24T14:00:47;17.32;;;7.22;;
63975;SDS011;50167;47.958;21.780;2023-07-24T14:03:13;15.72;;;8.45;;
63975;SDS011;50167;47.958;21.780;2023-07-24T14:05:40;12.68;;;8.25;;
63975;SDS011;50167;47.958;21.780;2023-07-24T14:08:06;11.45;;;8.10;;
63975;SDS011;50167;47.958;21.780;2023-07-24T14:10:33;13.60;;;8.13;;
63975;SDS011;50167;47.958;21.780;2023-07-24T14:12:59;13.50;;;8.35;;
63975;SDS011;50167;47.958;21.780;2023-07-24T14:15:25;12.90;;;8.58;;
63975;SDS011;50167;47.958;21.780;2023-07-24T14:17:52;11.22;;;8.95;;
63975;SDS011;50167;47.958;21.780;2023-07-24T14:20:18;16.77;;;8.63;;
63975;SDS011;50167;47.958;21.780;2023-07-24T14:22:45;17.35;;;8.43;;
63975;SDS011;50167;47.958;21.780;2023-07-24T14:25:11;13.32;;;8.25;;
63975;SDS011;50167;47.958;21.780;2023-07-24T14:27:37;17.92;;;8.70;;
63975;SDS011;50167;47.958;21.780;2023-07-24T14:30:04;11.83;;;8.53;;
63975;SDS011;50167;47.958;21.780;2023-07-24T14:32:31;11.35;;;8.85;;
63975;SDS011;50167;47.958;21.780;2023-07-24T14:34:58;13.38;;;9.05;;
63975;SDS011;50167;47.958;21.780;2023-07-24T14:37:24;11.90;;;7.83;;
63975;SDS011;50167;47.958;21.780;2023-07-24T14:39:50;16.85;;;7.78;;